sensor_id;sensor_type;location;lat;lon;timestamp;temperature;humidity
26049;DHT22;13822;51.568;5.086;2022-09-09T05:38:32;14.60;99.90
26049;DHT22;13822;51.568;5.086;2022-09-09T05:43:34;14.60;99.90
26049;DHT22;13822;51.568;5.086;2022-09-09T05:48:38;14.60;99.90
26049;DHT22;13822;51.568;5.086;2022-09-09T05:53:44;14.60;99.90
26049;DHT22;13822;51.568;5.086;2022-09-09T05:58:47;14.70;99.90
26049;DHT22;13822;51.568;5.086;2022-09-09T06:03:49;14.70;99.90
26049;DHT22;13822;51.568;5.086;2022-09-09T06:08:53;14.80;99.90
26049;DHT22;13822;51.568;5.086;2022-09-09T06:14:02;14.80;99.90
26049;DHT22;13822;51.568;5.086;2022-09-09T06:19:32;14.90;99.90
26049;DHT22;13822;51.568;5.086;2022-09-09T06:24:41;14.90;99.90
26049;DHT22;13822;51.568;5.086;2022-09-09T07:32:11;15.50;99.90
26049;DHT22;13822;51.568;5.086;2022-09-09T07:43:58;15.70;99.90
26049;DHT22;13822;51.568;5.086;2022-09-09T07:49:04;15.90;99.90
26049;DHT22;13822;51.568;5.086;2022-09-09T07:54:16;16.00;99.90
26049;DHT22;13822;51.568;5.086;2022-09-09T07:59:49;16.10;99.90
26049;DHT22;13822;51.568;5.086;2022-09-09T08:04:52;16.10;99.90
26049;DHT22;13822;51.568;5.086;2022-09-09T08:09:54;16.10;99.90
26049;DHT22;13822;51.568;5.086;2022-09-09T08:14:59;16.20;99.90
26049;DHT22;13822;51.568;5.086;2022-09-09T08:26:30;16.20;99.90
26049;DHT22;13822;51.568;5.086;2022-09-09T08:31:45;16.20;99.90
26049;DHT22;13822;51.568;5.086;2022-09-09T08:36:57;16.20;99.90
26049;DHT22;13822;51.568;5.086;2022-09-09T08:58:43;16.30;99.90
26049;DHT22;13822;51.568;5.086;2022-09-09T09:09:53;16.50;99.90
26049;DHT22;13822;51.568;5.086;2022-09-09T09:15:38;16.50;99.90
26049;DHT22;13822;51.568;5.086;2022-09-09T09:21:01;16.50;99.90
26049;DHT22;13822;51.568;5.086;2022-09-09T09:26:33;16.50;99.90
26049;DHT22;13822;51.568;5.086;2022-09-09T09:31:36;16.50;99.90
26049;DHT22;13822;51.568;5.086;2022-09-09T09:41:41;16.60;99.90
26049;DHT22;13822;51.568;5.086;2022-09-09T09:46:44;16.50;99.90
26049;DHT22;13822;51.568;5.086;2022-09-09T09:51:46;16.50;99.90
26049;DHT22;13822;51.568;5.086;2022-09-09T09:57:11;16.50;99.90
26049;DHT22;13822;51.568;5.086;2022-09-09T10:02:24;16.60;99.90
26049;DHT22;13822;51.568;5.086;2022-09-09T10:07:45;16.60;99.90
26049;DHT22;13822;51.568;5.086;2022-09-09T10:12:51;16.60;99.90
26049;DHT22;13822;51.568;5.086;2022-09-09T10:51:14;17.10;99.90
26049;DHT22;13822;51.568;5.086;2022-09-09T10:56:38;17.20;99.90
26049;DHT22;13822;51.568;5.086;2022-09-09T11:02:24;17.10;99.90
26049;DHT22;13822;51.568;5.086;2022-09-09T11:12:59;17.00;99.90
26049;DHT22;13822;51.568;5.086;2022-09-09T11:18:06;17.00;99.90
26049;DHT22;13822;51.568;5.086;2022-09-09T11:23:32;17.00;99.90
26049;DHT22;13822;51.568;5.086;2022-09-09T11:40:23;17.00;99.90
26049;DHT22;13822;51.568;5.086;2022-09-09T11:45:27;17.10;99.90
26049;DHT22;13822;51.568;5.086;2022-09-09T11:50:39;17.30;99.90
26049;DHT22;13822;51.568;5.086;2022-09-09T12:01:35;17.40;99.90
26049;DHT22;13822;51.568;5.086;2022-09-09T12:12:36;17.50;99.90
26049;DHT22;13822;51.568;5.086;2022-09-09T12:34:17;17.70;99.90
26049;DHT22;13822;51.568;5.086;2022-09-09T12:39:42;17.80;99.90
26049;DHT22;13822;51.568;5.086;2022-09-09T12:45:14;17.90;99.90
26049;DHT22;13822;51.568;5.086;2022-09-09T12:50:21;18.20;99.90
26049;DHT22;13822;51.568;5.086;2022-09-09T12:55:29;18.30;99.90
26049;DHT22;13822;51.568;5.086;2022-09-09T13:00:34;18.40;99.90
26049;DHT22;13822;51.568;5.086;2022-09-09T13:05:44;18.40;99.90
26049;DHT22;13822;51.568;5.086;2022-09-09T13:16:56;18.40;99.90
26049;DHT22;13822;51.568;5.086;2022-09-09T13:22:01;18.40;99.90
26049;DHT22;13822;51.568;5.086;2022-09-09T13:27:51;18.50;99.90
26049;DHT22;13822;51.568;5.086;2022-09-09T13:32:59;18.60;99.90
26049;DHT22;13822;51.568;5.086;2022-09-09T13:38:06;18.60;99.90
26049;DHT22;13822;51.568;5.086;2022-09-09T13:43:14;18.60;99.90
26049;DHT22;13822;51.568;5.086;2022-09-09T13:48:20;18.70;99.90
26049;DHT22;13822;51.568;5.086;2022-09-09T13:53:22;18.90;99.90
26049;DHT22;13822;51.568;5.086;2022-09-09T13:58:24;19.10;99.90
26049;DHT22;13822;51.568;5.086;2022-09-09T14:03:28;19.20;99.90
26049;DHT22;13822;51.568;5.086;2022-09-09T14:08:30;19.30;99.90
26049;DHT22;13822;51.568;5.086;2022-09-09T14:14:06;19.30;99.90
26049;DHT22;13822;51.568;5.086;2022-09-09T14:19:08;19.40;99.90
26049;DHT22;13822;51.568;5.086;2022-09-09T14:24:10;19.40;99.90
26049;DHT22;13822;51.568;5.086;2022-09-09T14:29:27;19.40;99.90
26049;DHT22;13822;51.568;5.086;2022-09-09T14:34:45;19.50;99.90
26049;DHT22;13822;51.568;5.086;2022-09-09T14:39:51;19.40;99.90
26049;DHT22;13822;51.568;5.086;2022-09-09T14:44:53;19.30;99.90
26049;DHT22;13822;51.568;5.086;2022-09-09T14:49:55;19.20;99.90
26049;DHT22;13822;51.568;5.086;2022-09-09T14:54:57;18.90;99.90
26049;DHT22;13822;51.568;5.086;2022-09-09T14:59:59;18.40;99.90
26049;DHT22;13822;51.568;5.086;2022-09-09T15:05:06;17.90;99.90
26049;DHT22;13822;51.568;5.086;2022-09-09T15:10:09;17.60;99.90
26049;DHT22;13822;51.568;5.086;2022-09-09T15:15:12;17.40;99.90
26049;DHT22;13822;51.568;5.086;2022-09-09T15:20:14;17.30;99.90
26049;DHT22;13822;51.568;5.086;2022-09-09T15:25:17;17.20;99.90
26049;DHT22;13822;51.568;5.086;2022-09-09T15:30:20;17.30;99.90
26049;DHT22;13822;51.568;5.086;2022-09-09T15:35:23;17.50;99.90
26049;DHT22;13822;51.568;5.086;2022-09-09T15:40:25;17.60;99.90
26049;DHT22;13822;51.568;5.086;2022-09-09T15:45:27;17.90;99.90
26049;DHT22;13822;51.568;5.086;2022-09-09T15:50:29;18.00;99.90
26049;DHT22;13822;51.568;5.086;2022-09-09T15:55:34;18.10;99.90
26049;DHT22;13822;51.568;5.086;2022-09-09T16:00:36;18.10;99.90
26049;DHT22;13822;51.568;5.086;2022-09-09T16:05:38;18.10;99.90
26049;DHT22;13822;51.568;5.086;2022-09-09T16:10:41;18.00;99.90
26049;DHT22;13822;51.568;5.086;2022-09-09T16:15:43;18.00;99.90
26049;DHT22;13822;51.568;5.086;2022-09-09T16:20:52;17.90;99.90
26049;DHT22;13822;51.568;5.086;2022-09-09T16:25:56;17.80;99.90
26049;DHT22;13822;51.568;5.086;2022-09-09T16:31:06;17.80;99.90
26049;DHT22;13822;51.568;5.086;2022-09-09T16:36:14;17.70;99.90
26049;DHT22;13822;51.568;5.086;2022-09-09T16:41:17;17.70;99.90
26049;DHT22;13822;51.568;5.086;2022-09-09T16:46:20;17.60;99.90
26049;DHT22;13822;51.568;5.086;2022-09-09T16:51:24;17.60;99.90
26049;DHT22;13822;51.568;5.086;2022-09-09T16:56:30;17.60;99.90
26049;DHT22;13822;51.568;5.086;2022-09-09T17:01:45;17.60;99.90
26049;DHT22;13822;51.568;5.086;2022-09-09T17:06:53;17.60;99.90
26049;DHT22;13822;51.568;5.086;2022-09-09T17:11:59;17.60;99.90
26049;DHT22;13822;51.568;5.086;2022-09-09T17:17:03;17.70;99.90
26049;DHT22;13822;51.568;5.086;2022-09-09T17:22:27;17.60;99.90
26049;DHT22;13822;51.568;5.086;2022-09-09T17:27:34;17.70;99.90
26049;DHT22;13822;51.568;5.086;2022-09-09T17:32:37;17.60;99.90
26049;DHT22;13822;51.568;5.086;2022-09-09T17:37:44;17.60;99.90
26049;DHT22;13822;51.568;5.086;2022-09-09T17:42:47;17.60;99.90
26049;DHT22;13822;51.568;5.086;2022-09-09T17:47:53;17.60;99.90
26049;DHT22;13822;51.568;5.086;2022-09-09T17:52:59;17.50;99.90
26049;DHT22;13822;51.568;5.086;2022-09-09T17:58:04;17.50;99.90
26049;DHT22;13822;51.568;5.086;2022-09-09T18:03:09;17.50;99.90
26049;DHT22;13822;51.568;5.086;2022-09-09T18:08:13;17.40;99.90
26049;DHT22;13822;51.568;5.086;2022-09-09T18:13:21;17.40;99.90
26049;DHT22;13822;51.568;5.086;2022-09-09T18:18:34;17.30;99.90
26049;DHT22;13822;51.568;5.086;2022-09-09T18:23:38;17.20;99.90
26049;DHT22;13822;51.568;5.086;2022-09-09T18:28:54;17.20;99.90
26049;DHT22;13822;51.568;5.086;2022-09-09T18:34:27;17.20;99.90
26049;DHT22;13822;51.568;5.086;2022-09-09T18:39:39;17.00;99.90
